バンコク/スワンナプーム の空港の天気 - METARとTAF

スワンナプーム国際空港 ( VTBS / BKK ) - タイ サムットプラーカーン県 (バンコク近郊)
飛行場実況気象(Metar)
観測時間11/18 00:30 ICT (11/17 17:30 UTC)
風向・風速西南西 2m/s
視程10km以上
天気現象
少しの雲 雲底高度 760m
気温26℃
湿度89%
気圧1011hPa
METARVTBS 171730Z 24003KT 9999 FEW025 26/24 Q1011 NOSIG
過去の天気等 Google飛行場航空写真 Wunderground天気予報

過去48時間のMETAR

飛行場予報(TAF)
発表時間: 11/18 00:00 ICT (11/17 17:00 UTC)
予報対象時間: 18日1時 ICT ~ 19日7時 ICT
風向・風速南南西 3m/s
視程10km以上
少しの雲 雲底高度 610m
18日5時 ICT ~ 18日7時 ICT に徐々に
風向・風速東 3m/s
視程8000m
18日9時 ICT ~ 18日11時 ICT に徐々に
風向・風速南南西 4m/s
視程10km以上
18日15時 ICT ~ 18日19時 ICT に一時的に
風向・風速不定 8m/s
視程6000m
天気現象弱い雷雨
少しの積乱雲 雲底高度 550m
全天の4割程度の雲 雲底高度 910m
19日1時 ICT ~ 19日3時 ICT に徐々に
風向・風速東南東 3m/s
TAF VTBS 171700Z 1718/1824 20005KT 9999 FEW020
BECMG 1722/1724 08005KT 8000
BECMG 1802/1804 20008KT 9999
TEMPO 1808/1812 VRB15KT 6000 -TSRA FEW018CB SCT030
BECMG 1818/1820 12005KT